Time;durP1;ratioP1;P1;durP2;ratioP2;P2;SDS_P1;SDS_P2;PMS_P1;PMS_P2;Temp;Humidity;BMP_temperature;BMP_pressure;BME280_temperature;BME280_humidity;BME280_pressure;Samples;Min_cycle;Max_cycle;Signal;HPM_P1;HPM_P2
2021/12/26 00:02:10;;;;;;;2.67;2.20;;;;;;;-11.76;60.42;99358.91;5042168;28;20046;-78
2021/12/26 00:04:41;;;;;;;4.22;1.90;;;;;;;-11.79;59.87;99366.28;5044461;28;20049;-78
2021/12/26 00:07:12;;;;;;;3.70;2.42;;;;;;;-11.75;60.05;99365.69;5043834;28;20055;-79
2021/12/26 00:09:42;;;;;;;3.20;2.00;;;;;;;-11.63;60.06;99357.97;5041959;28;20052;-78
2021/12/26 00:12:15;;;;;;;5.43;2.33;;;;;;;-11.62;59.54;99358.84;5050132;28;20041;-76
2021/12/26 00:14:46;;;;;;;2.95;2.17;;;;;;;-11.73;59.41;99368.28;5053368;28;20152;-77
2021/12/26 00:17:16;;;;;;;2.75;1.90;;;;;;;-11.76;59.50;99371.50;5053708;28;20045;-77
2021/12/26 00:19:50;;;;;;;9.10;2.05;;;;;;;-11.75;59.95;99370.75;5054664;28;20079;-76
2021/12/26 00:22:20;;;;;;;3.35;2.10;;;;;;;-11.72;59.66;99383.50;5061866;28;20240;-77
2021/12/26 00:24:52;;;;;;;8.48;1.70;;;;;;;-11.81;59.28;99367.84;5056955;28;20108;-79
2021/12/26 00:27:27;;;;;;;2.70;1.90;;;;;;;-11.80;59.18;99368.75;5039216;28;20091;-77
2021/12/26 00:29:58;;;;;;;2.28;1.70;;;;;;;-11.90;58.88;99362.34;5041050;28;20054;-77
2021/12/26 00:32:29;;;;;;;5.03;2.67;;;;;;;-12.00;58.54;99355.03;5040334;28;20049;-77
2021/12/26 00:35:00;;;;;;;4.13;2.40;;;;;;;-12.17;58.99;99367.50;5040663;28;20048;-77
2021/12/26 00:37:30;;;;;;;2.17;1.70;;;;;;;-12.26;60.35;99377.03;5040767;28;20049;-78
2021/12/26 00:40:01;;;;;;;5.18;1.80;;;;;;;-12.31;59.52;99363.28;5040363;28;20058;-79
2021/12/26 00:42:34;;;;;;;2.65;1.90;;;;;;;-12.42;58.35;99316.50;5040123;28;20080;-78
2021/12/26 00:45:06;;;;;;;6.95;2.08;;;;;;;-12.38;59.48;99346.06;5038144;28;20237;-78
2021/12/26 00:47:37;;;;;;;2.85;1.80;;;;;;;-12.37;59.20;99362.94;5040299;28;20083;-78
2021/12/26 00:50:11;;;;;;;2.20;1.85;;;;;;;-12.44;58.60;99345.72;5035757;28;20071;-78
2021/12/26 00:52:42;;;;;;;2.50;1.60;;;;;;;-12.36;59.19;99364.66;5042202;28;20041;-78
2021/12/26 00:55:15;;;;;;;2.25;2.05;;;;;;;-12.38;59.25;99356.16;5044290;28;20072;-78
2021/12/26 00:57:48;;;;;;;2.40;1.80;;;;;;;-12.44;59.23;99355.81;5042083;28;20133;-79
2021/12/26 01:00:20;;;;;;;3.00;1.70;;;;;;;-12.62;59.01;99331.28;5044096;28;20116;-78
2021/12/26 01:02:52;;;;;;;3.22;1.77;;;;;;;-12.50;59.61;99357.94;5042711;28;20053;-78
2021/12/26 01:05:24;;;;;;;4.68;1.60;;;;;;;-12.48;58.99;99349.72;5041649;28;20345;-79
2021/12/26 01:07:58;;;;;;;6.30;2.17;;;;;;;-12.47;59.17;99338.00;5044198;28;20087;-78
2021/12/26 01:10:36;;;;;;;2.67;1.88;;;;;;;-12.75;59.01;99298.63;5042242;28;20379;-79
2021/12/26 01:13:16;;;;;;;4.10;1.90;;;;;;;-12.56;59.31;99327.38;5053842;28;20053;-79
2021/12/26 01:15:48;;;;;;;2.45;2.10;;;;;;;-12.54;59.36;99323.31;5065238;28;20340;-79
2021/12/26 01:18:19;;;;;;;2.72;2.10;;;;;;;-12.52;59.35;99327.66;5065147;28;20356;-80
2021/12/26 01:20:55;;;;;;;3.05;1.85;;;;;;;-12.46;59.23;99329.66;5058989;28;20308;-78
2021/12/26 01:23:27;;;;;;;1.90;1.80;;;;;;;-12.46;59.25;99332.19;5054421;28;20059;-77
2021/12/26 01:25:58;;;;;;;9.35;2.05;;;;;;;-12.56;60.28;99309.75;5057920;28;20045;-79
2021/12/26 01:28:32;;;;;;;3.17;2.05;;;;;;;-12.51;60.05;99323.50;5053368;28;20064;-79
2021/12/26 01:31:03;;;;;;;1.75;1.63;;;;;;;-12.54;60.43;99305.69;5047734;28;20068;-78
2021/12/26 01:33:34;;;;;;;2.53;1.85;;;;;;;-12.53;59.90;99314.97;5050207;28;20064;-77
2021/12/26 01:36:05;;;;;;;1.80;1.65;;;;;;;-12.55;59.50;99312.38;5041456;28;20049;-78
2021/12/26 01:38:36;;;;;;;4.00;2.25;;;;;;;-12.50;59.62;99300.94;5046657;28;20066;-77
2021/12/26 01:41:10;;;;;;;3.72;2.10;;;;;;;-12.65;59.80;99305.94;5054196;28;20056;-77
2021/12/26 01:43:45;;;;;;;6.78;1.90;;;;;;;-12.68;60.15;99290.66;5053675;28;20113;-76
2021/12/26 01:46:17;;;;;;;2.53;2.30;;;;;;;-12.72;60.55;99291.25;5050337;28;20090;-76
2021/12/26 01:48:48;;;;;;;3.25;1.98;;;;;;;-12.67;60.81;99302.44;5047698;28;20085;-79
2021/12/26 01:51:19;;;;;;;2.72;1.88;;;;;;;-12.69;60.63;99296.47;5043990;28;20046;-79
2021/12/26 01:53:50;;;;;;;2.53;1.58;;;;;;;-12.68;61.46;99285.63;5055197;28;20104;-78
2021/12/26 01:56:21;;;;;;;2.20;2.00;;;;;;;-12.65;61.41;99288.31;5057434;28;20081;-78
2021/12/26 01:58:56;;;;;;;2.55;1.83;;;;;;;-12.69;61.38;99288.91;5043147;28;20076;-78
2021/12/26 02:01:27;;;;;;;5.00;1.90;;;;;;;-12.65;60.92;99289.97;5049932;28;20111;-78
2021/12/26 02:03:59;;;;;;;2.78;2.25;;;;;;;-12.55;60.97;99283.81;5042119;28;20253;-78
2021/12/26 02:06:29;;;;;;;3.88;1.95;;;;;;;-12.49;60.59;99281.66;5043062;28;20077;-78
2021/12/26 02:09:00;;;;;;;2.78;2.10;;;;;;;-12.48;60.22;99278.38;5042712;28;20268;-78
2021/12/26 02:11:31;;;;;;;4.13;1.88;;;;;;;-12.49;60.24;99267.44;5047499;28;20053;-78
2021/12/26 02:14:03;;;;;;;1.80;1.70;;;;;;;-12.34;60.04;99276.66;5042689;28;20045;-79
2021/12/26 02:16:34;;;;;;;1.92;1.60;;;;;;;-12.27;60.11;99278.75;5042554;28;20041;-79
2021/12/26 02:19:05;;;;;;;2.75;2.00;;;;;;;-12.26;60.08;99281.34;5042543;28;20104;-79
2021/12/26 02:21:58;;;;;;;1.92;1.80;;;;;;;-12.19;60.02;99278.41;5034630;28;20425;-79
2021/12/26 02:24:34;;;;;;;4.93;1.70;;;;;;;-12.19;59.23;99278.41;5053303;28;20053;-79
2021/12/26 02:29:53;;;;;;;2.10;1.90;;;;;;;-12.21;58.99;99269.88;5049392;28;20408;-80
2021/12/26 02:32:24;;;;;;;2.00;1.80;;;;;;;-12.23;59.63;99268.97;5037299;28;20087;-80
2021/12/26 02:34:59;;;;;;;4.03;1.90;;;;;;;-12.15;59.28;99274.44;5023438;28;20121;-80
2021/12/26 02:37:32;;;;;;;2.95;1.70;;;;;;;-12.11;59.10;99258.69;5023270;28;20250;-80
2021/12/26 02:40:02;;;;;;;5.43;1.90;;;;;;;-12.06;59.23;99238.81;4985972;28;20060;-80
2021/12/26 02:42:34;;;;;;;5.30;2.58;;;;;;;-11.83;59.12;99253.53;5050901;28;20052;-80
2021/12/26 02:45:05;;;;;;;3.80;2.00;;;;;;;-11.58;58.33;99259.91;5042341;28;20049;-80
2021/12/26 02:47:38;;;;;;;2.97;1.60;;;;;;;-11.58;57.66;99262.44;5042925;28;20352;-80
2021/12/26 02:50:13;;;;;;;4.97;1.90;;;;;;;-11.44;57.30;99248.94;5042751;28;20057;-80
2021/12/26 02:52:46;;;;;;;5.40;1.52;;;;;;;-11.43;56.82;99250.69;5042777;28;20049;-80
2021/12/26 02:55:19;;;;;;;5.45;2.05;;;;;;;-11.37;56.90;99256.06;5042820;28;20104;-80
2021/12/26 02:57:50;;;;;;;3.58;1.80;;;;;;;-11.51;57.15;99231.75;5046780;28;20241;-79
2021/12/26 03:00:23;;;;;;;2.95;1.90;;;;;;;-11.18;57.31;99246.94;5057256;28;20049;-81
2021/12/26 03:02:57;;;;;;;3.45;1.63;;;;;;;-11.35;56.78;99206.56;5042070;28;20045;-80
2021/12/26 03:05:30;;;;;;;7.22;1.70;;;;;;;-11.24;56.42;99218.88;5042601;28;20057;-79
2021/12/26 03:08:03;;;;;;;1.95;1.83;;;;;;;-11.46;57.70;99225.28;5048172;28;20084;-79
2021/12/26 03:10:36;;;;;;;1.73;1.63;;;;;;;-11.26;57.39;99238.09;5042868;28;20108;-82
2021/12/26 03:13:10;;;;;;;4.07;1.70;;;;;;;-11.44;57.43;99226.25;5042720;28;20041;-78
2021/12/26 03:15:42;;;;;;;3.58;1.83;;;;;;;-11.60;58.21;99185.91;5041482;28;20626;-80
2021/12/26 03:18:12;;;;;;;4.53;1.85;;;;;;;-11.25;58.00;99222.22;5041620;28;20318;-81
2021/12/26 03:20:49;;;;;;;3.13;1.85;;;;;;;-11.24;57.51;99221.41;5041563;28;20049;-80
2021/12/26 03:23:24;;;;;;;3.90;2.00;;;;;;;-11.16;57.61;99223.53;5041358;28;20045;-80
2021/12/26 03:25:57;;;;;;;3.42;2.00;;;;;;;-11.07;56.98;99220.63;5041448;28;20041;-82
2021/12/26 03:28:29;;;;;;;4.13;2.03;;;;;;;-10.98;56.94;99221.13;5039263;28;20049;-81
2021/12/26 03:34:13;;;;;;;2.97;1.80;;;;;;;-10.72;56.21;99217.41;5038225;28;20113;-81
2021/12/26 03:36:46;;;;;;;5.13;1.63;;;;;;;-10.49;55.81;99177.28;5041631;28;20269;-78
2021/12/26 03:39:18;;;;;;;2.67;1.58;;;;;;;-10.19;55.75;99180.41;5039665;28;20080;-82
2021/12/26 03:41:50;;;;;;;4.72;1.90;;;;;;;-10.20;56.39;99191.31;5039773;28;20245;-78
2021/12/26 03:44:21;;;;;;;2.03;1.63;;;;;;;-10.30;57.50;99194.22;5041816;28;20112;-77
2021/12/26 03:46:52;;;;;;;3.75;1.50;;;;;;;-10.62;58.13;99190.97;5035570;28;20376;-77
2021/12/26 03:49:23;;;;;;;4.75;1.67;;;;;;;-10.62;59.34;99210.31;5037750;28;20113;-79
2021/12/26 03:51:53;;;;;;;3.45;1.80;;;;;;;-10.91;58.19;99176.88;5040568;28;20041;-81
2021/12/26 03:54:26;;;;;;;5.95;2.00;;;;;;;-10.87;57.50;99192.25;5038048;28;20056;-81
2021/12/26 03:56:57;;;;;;;4.82;1.88;;;;;;;-10.94;57.44;99197.75;5040525;28;20041;-81
2021/12/26 03:59:28;;;;;;;3.30;1.70;;;;;;;-10.93;56.87;99204.56;5038480;28;20041;-83
2021/12/26 04:02:00;;;;;;;8.95;4.95;;;;;;;-11.43;56.13;99114.56;5040514;28;20276;-81
2021/12/26 04:04:31;;;;;;;3.75;1.65;;;;;;;-10.89;56.33;99205.56;5032522;28;20112;-80
2021/12/26 04:07:01;;;;;;;2.78;1.90;;;;;;;-10.91;56.25;99192.88;5019473;28;20049;-80
2021/12/26 04:09:34;;;;;;;5.47;2.30;;;;;;;-10.71;56.64;99195.53;5012007;28;20469;-80
2021/12/26 04:12:05;;;;;;;2.20;1.65;;;;;;;-10.51;56.21;99184.78;5014144;28;20060;-80
2021/12/26 04:14:36;;;;;;;2.13;1.58;;;;;;;-10.34;56.28;99197.38;5017495;28;20144;-80
2021/12/26 04:17:07;;;;;;;2.47;1.58;;;;;;;-10.26;57.22;99196.06;5014501;28;20077;-79
2021/12/26 04:19:38;;;;;;;4.35;1.92;;;;;;;-10.18;57.33;99199.84;5017098;28;20050;-78
2021/12/26 04:22:10;;;;;;;2.30;1.50;;;;;;;-10.18;57.87;99196.44;5019259;28;20074;-78
2021/12/26 04:24:42;;;;;;;3.42;1.92;;;;;;;-10.20;58.22;99186.28;5019582;28;20050;-79
2021/12/26 04:27:13;;;;;;;4.18;1.85;;;;;;;-10.34;57.34;99188.13;5018070;28;20048;-79
2021/12/26 04:29:44;;;;;;;1.80;1.45;;;;;;;-10.50;57.11;99181.47;5015797;28;20295;-79
2021/12/26 04:32:14;;;;;;;1.83;1.67;;;;;;;-10.57;56.77;99189.53;5019982;28;20075;-79
2021/12/26 04:34:45;;;;;;;3.75;1.50;;;;;;;-10.67;55.44;99188.22;5016511;28;20053;-78
2021/12/26 04:37:16;;;;;;;3.67;1.73;;;;;;;-10.91;55.76;99200.44;5017701;28;20092;-78
2021/12/26 04:39:49;;;;;;;2.67;1.50;;;;;;;-11.03;56.54;99197.31;5018465;28;20380;-78
2021/12/26 04:42:20;;;;;;;4.55;1.85;;;;;;;-11.23;57.09;99185.28;5019571;28;20042;-77
2021/12/26 04:44:52;;;;;;;9.60;2.58;;;;;;;-11.26;56.73;99182.63;5020057;28;20148;-80
2021/12/26 04:47:23;;;;;;;1.92;1.55;;;;;;;-11.52;56.83;99184.66;5017111;28;20080;-81
2021/12/26 04:49:54;;;;;;;3.70;1.80;;;;;;;-11.49;56.92;99194.88;5017996;28;20052;-79
2021/12/26 04:52:24;;;;;;;1.90;1.60;;;;;;;-11.73;57.54;99165.06;5015182;28;20150;-80
2021/12/26 04:54:57;;;;;;;1.63;1.48;;;;;;;-11.67;58.04;99189.72;5014457;28;20040;-79
2021/12/26 04:57:28;;;;;;;3.63;1.70;;;;;;;-11.68;58.96;99195.56;5016242;28;20261;-80
2021/12/26 04:59:59;;;;;;;2.20;1.67;;;;;;;-11.72;59.04;99197.03;5018743;28;20109;-79
2021/12/26 05:02:32;;;;;;;3.72;1.60;;;;;;;-11.69;58.83;99203.91;5017939;28;20084;-80
2021/12/26 05:05:02;;;;;;;2.90;1.65;;;;;;;-11.66;59.50;99200.66;5010573;28;20392;-80
2021/12/26 05:07:33;;;;;;;1.73;1.55;;;;;;;-11.62;59.15;99197.53;5015396;28;20076;-79
2021/12/26 05:10:07;;;;;;;5.55;1.75;;;;;;;-11.59;59.16;99202.75;5015588;28;20053;-80
2021/12/26 05:12:37;;;;;;;4.22;2.13;;;;;;;-11.48;58.92;99200.78;5014999;28;20102;-79
2021/12/26 05:15:10;;;;;;;3.60;1.88;;;;;;;-11.61;58.70;99186.66;5017039;28;20046;-79
2021/12/26 05:17:46;;;;;;;1.60;1.50;;;;;;;-11.67;58.91;99188.88;5016271;28;20088;-79
2021/12/26 05:20:19;;;;;;;3.33;1.50;;;;;;;-11.62;59.14;99187.47;5013423;28;20177;-80
2021/12/26 05:22:51;;;;;;;3.38;1.50;;;;;;;-11.74;58.21;99183.47;5017523;28;20081;-80
2021/12/26 05:25:26;;;;;;;4.03;1.80;;;;;;;-11.61;59.05;99209.34;5016415;28;20077;-82
2021/12/26 05:27:57;;;;;;;2.35;1.55;;;;;;;-11.83;58.45;99188.03;5015527;28;20084;-78
2021/12/26 05:30:29;;;;;;;2.58;1.75;;;;;;;-11.76;58.89;99210.25;5013787;28;20136;-78
2021/12/26 05:33:00;;;;;;;4.13;1.80;;;;;;;-11.70;59.20;99218.91;5019178;28;20093;-78
2021/12/26 05:35:32;;;;;;;6.47;1.92;;;;;;;-11.84;58.92;99191.31;5018228;28;20050;-78
2021/12/26 05:38:03;;;;;;;31.63;9.48;;;;;;;-11.80;58.48;99198.28;5022131;28;20053;-78
2021/12/26 05:40:36;;;;;;;3.88;2.00;;;;;;;-11.64;58.66;99211.72;5043201;28;20408;-79
2021/12/26 05:43:06;;;;;;;2.83;1.50;;;;;;;-11.74;58.46;99211.19;5041062;28;20245;-78
2021/12/26 05:45:38;;;;;;;1.98;1.60;;;;;;;-11.75;58.41;99239.72;5042646;28;20120;-79
2021/12/26 05:48:08;;;;;;;3.78;1.50;;;;;;;-11.85;58.63;99234.09;5044170;28;20045;-78
2021/12/26 05:50:39;;;;;;;2.42;1.42;;;;;;;-11.83;58.76;99233.38;5042394;28;20064;-78
2021/12/26 05:53:10;;;;;;;2.33;1.67;;;;;;;-11.84;59.10;99236.69;5043071;28;20063;-78
2021/12/26 05:55:43;;;;;;;3.08;2.08;;;;;;;-12.00;59.12;99194.69;5049861;28;20044;-78
2021/12/26 05:58:13;;;;;;;2.00;1.80;;;;;;;-11.79;59.78;99224.34;5042770;28;20056;-81
2021/12/26 06:00:44;;;;;;;5.07;2.05;;;;;;;-11.73;59.33;99225.56;5044791;28;20069;-80
2021/12/26 06:03:15;;;;;;;2.35;1.50;;;;;;;-11.59;59.61;99227.94;5049105;28;20080;-81
2021/12/26 06:05:48;;;;;;;1.98;1.65;;;;;;;-11.49;59.22;99226.78;5050116;28;20053;-81
2021/12/26 06:08:19;;;;;;;1.98;1.63;;;;;;;-11.52;58.51;99225.84;5041016;28;20133;-78
2021/12/26 06:10:51;;;;;;;7.85;2.75;;;;;;;-11.50;59.27;99236.00;5041703;28;20063;-78
2021/12/26 06:13:22;;;;;;;4.28;2.22;;;;;;;-11.63;59.12;99221.88;5042851;28;20060;-79
2021/12/26 06:15:54;;;;;;;3.67;1.88;;;;;;;-11.59;59.07;99227.94;5041673;28;20060;-79
2021/12/26 06:18:25;;;;;;;1.65;1.55;;;;;;;-11.59;59.34;99233.84;5041199;28;20300;-79
2021/12/26 06:20:55;;;;;;;2.10;1.55;;;;;;;-11.69;59.32;99240.84;5046753;28;20111;-79
2021/12/26 06:23:26;;;;;;;2.58;1.73;;;;;;;-11.78;59.85;99239.56;5041907;28;20113;-78
2021/12/26 06:25:59;;;;;;;2.08;1.60;;;;;;;-11.84;60.14;99241.72;5044444;28;20105;-78
2021/12/26 06:28:29;;;;;;;2.33;1.60;;;;;;;-11.87;60.52;99246.63;5052876;28;20050;-78
2021/12/26 06:31:00;;;;;;;4.47;1.73;;;;;;;-12.04;60.83;99228.03;5031034;28;20069;-78
2021/12/26 06:33:31;;;;;;;1.98;1.40;;;;;;;-11.87;60.95;99251.66;5042227;28;20049;-79
2021/12/26 06:36:02;;;;;;;5.28;1.90;;;;;;;-11.95;60.73;99253.75;5048551;28;20064;-78
2021/12/26 06:38:34;;;;;;;2.40;1.70;;;;;;;-12.02;61.18;99243.25;5042347;28;20084;-78
2021/12/26 06:41:08;;;;;;;5.20;2.10;;;;;;;-12.25;61.68;99205.06;5041083;28;20081;-79
2021/12/26 06:43:39;;;;;;;4.22;2.53;;;;;;;-12.03;62.24;99244.00;4978741;28;20077;-78
2021/12/26 06:46:10;;;;;;;5.70;2.38;;;;;;;-12.08;62.09;99246.31;5021900;28;20120;-78
2021/12/26 06:48:42;;;;;;;3.13;2.05;;;;;;;-12.30;62.54;99221.56;5017916;28;20085;-77
2021/12/26 06:51:13;;;;;;;3.17;2.47;;;;;;;-12.19;62.65;99248.19;5021544;28;20046;-77
2021/12/26 06:53:44;;;;;;;6.28;2.28;;;;;;;-12.34;62.69;99217.09;5021979;28;20137;-78
2021/12/26 06:56:16;;;;;;;5.22;2.30;;;;;;;-12.21;62.94;99252.25;5022165;28;20050;-78
2021/12/26 06:58:47;;;;;;;3.47;1.77;;;;;;;-12.13;63.29;99261.91;5021488;28;20081;-78
2021/12/26 07:01:18;;;;;;;7.28;2.05;;;;;;;-12.23;63.43;99256.38;5021894;28;20118;-78
2021/12/26 07:03:49;;;;;;;3.03;2.38;;;;;;;-12.16;63.60;99263.47;5021148;28;20049;-78
2021/12/26 07:06:20;;;;;;;3.90;1.50;;;;;;;-12.22;63.62;99268.16;5020811;28;20057;-78
2021/12/26 07:08:51;;;;;;;5.03;1.90;;;;;;;-12.24;63.69;99269.72;5010920;28;20050;-80
2021/12/26 07:11:24;;;;;;;5.28;2.50;;;;;;;-12.32;63.65;99275.97;5018157;28;20440;-79
2021/12/26 07:13:56;;;;;;;6.88;2.50;;;;;;;-12.36;63.68;99274.03;5022032;28;20046;-79
2021/12/26 07:16:27;;;;;;;2.28;1.95;;;;;;;-12.48;63.72;99258.22;5021645;28;20105;-79
2021/12/26 07:18:58;;;;;;;3.42;2.50;;;;;;;-12.46;63.51;99274.28;5021854;28;20084;-80
2021/12/26 07:21:28;;;;;;;7.32;1.85;;;;;;;-12.49;63.84;99279.16;5020448;28;20385;-81
2021/12/26 07:23:59;;;;;;;1.80;1.70;;;;;;;-12.50;64.06;99264.81;5021157;28;20042;-80
2021/12/26 07:26:32;;;;;;;2.35;1.70;;;;;;;-12.44;64.01;99275.25;5021566;28;20057;-80
2021/12/26 07:29:02;;;;;;;3.25;1.63;;;;;;;-12.49;63.64;99281.66;5021530;28;20069;-80
2021/12/26 07:31:33;;;;;;;2.10;1.60;;;;;;;-12.54;63.43;99278.03;5002008;28;20058;-82
2021/12/26 07:34:04;;;;;;;3.83;1.92;;;;;;;-12.58;63.51;99281.13;5018865;28;20050;-81
2021/12/26 07:36:35;;;;;;;3.88;2.00;;;;;;;-12.54;63.37;99293.13;5020346;28;20050;-79
2021/12/26 07:39:06;;;;;;;4.07;2.00;;;;;;;-12.57;63.38;99287.91;5016234;28;20101;-79
2021/12/26 07:41:40;;;;;;;4.63;2.10;;;;;;;-12.54;63.76;99288.09;5019464;28;20066;-80
2021/12/26 07:44:11;;;;;;;9.45;1.80;;;;;;;-12.66;63.46;99294.13;5019865;28;20061;-80
2021/12/26 07:46:43;;;;;;;3.13;1.70;;;;;;;-12.58;63.39;99286.16;5020542;28;20045;-79
2021/12/26 07:49:15;;;;;;;8.55;1.73;;;;;;;-12.58;63.07;99291.19;5020927;28;20229;-79
2021/12/26 07:51:49;;;;;;;2.00;1.80;;;;;;;-12.54;63.28;99293.97;5018097;28;20112;-77
2021/12/26 07:54:22;;;;;;;2.38;1.77;;;;;;;-12.61;63.14;99282.66;5017453;28;20050;-78
2021/12/26 07:56:58;;;;;;;2.72;1.70;;;;;;;-12.60;63.28;99294.50;4995796;28;20069;-79
2021/12/26 07:59:28;;;;;;;2.53;2.00;;;;;;;-12.65;63.30;99287.47;5040606;28;20052;-77
2021/12/26 08:02:00;;;;;;;1.80;1.70;;;;;;;-12.64;63.42;99287.53;5039392;28;20218;-78
2021/12/26 08:04:32;;;;;;;3.20;1.58;;;;;;;-12.60;63.47;99284.44;5040798;28;20057;-77
2021/12/26 08:07:03;;;;;;;5.03;2.17;;;;;;;-12.54;63.32;99293.13;5034336;28;20080;-78
2021/12/26 08:09:34;;;;;;;4.25;2.13;;;;;;;-12.42;63.60;99289.66;5022102;28;20056;-78
2021/12/26 08:12:09;;;;;;;13.23;5.03;;;;;;;-12.46;63.52;99280.19;5035689;28;20053;-78
2021/12/26 08:14:40;;;;;;;7.93;3.65;;;;;;;-12.33;63.50;99288.47;5040069;28;20050;-79
2021/12/26 08:17:11;;;;;;;6.90;2.90;;;;;;;-12.37;63.60;99277.34;5025633;28;20075;-78
2021/12/26 08:19:42;;;;;;;11.05;4.53;;;;;;;-12.27;63.20;99294.72;5025607;28;20360;-78
2021/12/26 08:22:13;;;;;;;5.47;2.25;;;;;;;-12.22;63.05;99293.34;5023694;28;20103;-79
2021/12/26 08:24:44;;;;;;;10.48;3.13;;;;;;;-12.21;63.30;99297.59;5018771;28;20211;-78
2021/12/26 08:27:17;;;;;;;16.15;4.60;;;;;;;-12.19;63.72;99288.47;5019327;28;20077;-78
2021/12/26 08:29:48;;;;;;;19.25;5.07;;;;;;;-12.16;64.27;99286.13;5018394;28;20065;-77
2021/12/26 08:32:19;;;;;;;11.48;3.35;;;;;;;-12.08;64.30;99290.75;5018282;28;20069;-79
2021/12/26 08:34:51;;;;;;;1.80;1.70;;;;;;;-12.01;64.48;99307.94;5020930;28;20041;-78
2021/12/26 08:37:25;;;;;;;3.35;1.88;;;;;;;-12.07;65.60;99315.16;5020368;28;20254;-79
2021/12/26 08:39:59;;;;;;;4.35;1.88;;;;;;;-12.19;66.39;99307.75;5019291;28;20064;-80
2021/12/26 08:42:32;;;;;;;3.92;1.75;;;;;;;-12.21;67.25;99310.19;5019232;28;20127;-81
2021/12/26 08:45:04;;;;;;;3.75;1.92;;;;;;;-12.24;68.26;99315.03;5022017;28;20076;-83
2021/12/26 08:47:36;;;;;;;5.20;2.22;;;;;;;-12.24;68.88;99314.19;5018792;28;20050;-81
2021/12/26 08:50:09;;;;;;;10.35;2.80;;;;;;;-12.25;69.38;99317.50;5021678;28;20042;-80
2021/12/26 08:52:41;;;;;;;6.15;2.63;;;;;;;-12.24;70.28;99310.00;5018180;28;20254;-79
2021/12/26 08:55:12;;;;;;;25.90;6.82;;;;;;;-12.30;70.56;99288.63;5017498;28;20041;-79
2021/12/26 08:57:45;;;;;;;11.70;4.55;;;;;;;-12.24;70.84;99310.00;5028000;28;20233;-80
2021/12/26 09:00:18;;;;;;;6.43;3.20;;;;;;;-12.26;71.29;99311.56;5026863;28;20049;-81
2021/12/26 09:02:53;;;;;;;6.97;2.88;;;;;;;-12.26;71.61;99304.00;5020775;28;20058;-80
2021/12/26 09:05:24;;;;;;;15.45;5.00;;;;;;;-12.33;71.88;99289.31;5023585;28;20076;-80
2021/12/26 09:07:58;;;;;;;7.25;3.38;;;;;;;-12.33;72.20;99304.41;5020988;28;20105;-78
2021/12/26 09:10:29;;;;;;;8.35;2.40;;;;;;;-12.31;72.56;99312.94;5026256;28;20521;-78
2021/12/26 09:13:01;;;;;;;5.68;2.38;;;;;;;-12.34;72.84;99317.81;5035811;28;20071;-79
2021/12/26 09:15:32;;;;;;;5.85;2.47;;;;;;;-12.24;72.72;99315.03;5030076;28;20352;-79
2021/12/26 09:18:03;;;;;;;4.53;2.20;;;;;;;-12.13;72.71;99312.28;5039017;28;20042;-77
2021/12/26 09:20:34;;;;;;;22.33;5.65;;;;;;;-12.03;72.93;99319.56;5050953;28;20108;-78
2021/12/26 09:23:05;;;;;;;6.00;2.63;;;;;;;-12.02;72.53;99321.31;5051534;28;20072;-75
2021/12/26 09:25:36;;;;;;;8.38;2.97;;;;;;;-12.08;72.53;99329.41;5054384;28;20117;-75
2021/12/26 09:28:09;;;;;;;9.50;3.42;;;;;;;-12.19;72.62;99313.66;5032576;28;20056;-77
2021/12/26 09:30:40;;;;;;;6.38;2.13;;;;;;;-12.24;72.81;99321.72;5031751;28;20049;-77
2021/12/26 09:33:11;;;;;;;12.30;3.42;;;;;;;-12.16;73.07;99339.00;5044066;28;20086;-77
2021/12/26 09:35:41;;;;;;;7.43;3.25;;;;;;;-12.16;73.37;99333.09;5041515;28;20085;-77
2021/12/26 09:38:12;;;;;;;14.30;4.90;;;;;;;-12.11;73.88;99330.84;5043856;28;20049;-77
2021/12/26 09:40:44;;;;;;;16.80;5.35;;;;;;;-12.11;73.80;99316.63;5021233;28;20046;-77
2021/12/26 09:43:16;;;;;;;32.67;9.60;;;;;;;-12.01;74.12;99334.00;5026775;28;20266;-77
2021/12/26 09:45:47;;;;;;;75.60;19.70;;;;;;;-12.04;74.17;99327.91;5043285;28;20080;-78
2021/12/26 09:48:18;;;;;;;50.75;13.77;;;;;;;-11.98;74.32;99338.34;5042945;28;20049;-77
2021/12/26 09:50:49;;;;;;;19.17;6.55;;;;;;;-12.00;74.65;99339.91;5042757;28;20399;-78
2021/12/26 09:53:20;;;;;;;8.98;3.03;;;;;;;-12.01;74.90;99344.06;5035443;28;20078;-78
2021/12/26 09:55:51;;;;;;;6.60;2.95;;;;;;;-12.04;74.82;99326.25;5004733;28;20273;-78
2021/12/26 09:58:23;;;;;;;4.57;3.00;;;;;;;-11.87;74.94;99337.31;5015015;28;20109;-78
2021/12/26 10:00:54;;;;;;;8.77;2.10;;;;;;;-11.84;74.58;99337.44;5019369;28;20364;-80
2021/12/26 10:03:28;;;;;;;26.65;6.30;;;;;;;-12.02;74.97;99337.31;5037017;28;20285;-79
2021/12/26 10:06:13;;;;;;;24.75;5.78;;;;;;;-12.57;75.01;99257.72;5033455;28;20053;-79
2021/12/26 10:08:55;;;;;;;9.88;2.42;;;;;;;-12.12;74.99;99314.03;5037263;28;20348;-81
2021/12/26 10:11:28;;;;;;;5.80;2.50;;;;;;;-11.93;75.20;99343.63;5042609;28;20238;-79
2021/12/26 10:14:02;;;;;;;22.50;5.90;;;;;;;-12.25;75.33;99298.22;5039448;28;20109;-79
2021/12/26 10:16:39;;;;;;;8.57;2.60;;;;;;;-12.55;75.44;99274.63;5042270;28;20108;-79
2021/12/26 10:19:11;;;;;;;3.58;1.80;;;;;;;-12.48;75.60;99293.47;5032340;28;20113;-79
2021/12/26 10:21:49;;;;;;;6.80;3.17;;;;;;;-12.06;75.97;99344.59;4984202;28;20344;-79
2021/12/26 10:24:22;;;;;;;12.85;3.55;;;;;;;-12.22;75.98;99318.53;5022184;28;20092;-79
2021/12/26 10:26:55;;;;;;;3.90;2.15;;;;;;;-12.25;75.90;99313.31;5026484;28;20041;-79
2021/12/26 10:29:32;;;;;;;5.40;2.55;;;;;;;-11.93;75.94;99352.06;5037356;28;20112;-79
2021/12/26 10:32:09;;;;;;;6.32;2.90;;;;;;;-11.86;76.01;99358.34;5027719;28;20064;-79
2021/12/26 10:34:43;;;;;;;7.20;3.17;;;;;;;-11.84;76.28;99352.56;5022445;28;20049;-80
2021/12/26 10:37:21;;;;;;;7.95;3.35;;;;;;;-11.81;75.94;99362.81;5030694;28;20297;-79
2021/12/26 10:39:54;;;;;;;74.65;13.70;;;;;;;-11.81;76.18;99367.84;5031279;28;20389;-78
2021/12/26 10:42:28;;;;;;;62.05;13.13;;;;;;;-12.03;76.08;99334.69;5037420;28;20054;-77
2021/12/26 10:45:02;;;;;;;58.50;11.15;;;;;;;-12.37;76.09;99262.25;5033325;28;20046;-78
2021/12/26 10:47:35;;;;;;;96.47;17.90;;;;;;;-11.85;76.37;99355.03;5023399;28;20050;-77
2021/12/26 10:50:11;;;;;;;40.65;8.57;;;;;;;-11.88;76.35;99349.81;5032620;28;20101;-78
2021/12/26 10:52:43;;;;;;;17.73;4.80;;;;;;;-11.78;76.58;99367.16;5030336;28;20053;-79
2021/12/26 10:55:16;;;;;;;55.90;10.95;;;;;;;-11.76;76.72;99356.38;5022839;28;20053;-79
2021/12/26 10:57:48;;;;;;;44.15;9.55;;;;;;;-11.70;76.70;99352.47;5030880;28;20156;-79
2021/12/26 11:00:23;;;;;;;10.52;3.63;;;;;;;-12.26;76.52;99261.19;5023404;28;20065;-78
2021/12/26 11:02:57;;;;;;;13.40;4.15;;;;;;;-11.76;76.71;99341.25;5035784;28;20388;-78
2021/12/26 11:05:32;;;;;;;17.70;5.50;;;;;;;-11.71;76.66;99354.13;5041715;28;20333;-79
2021/12/26 11:08:06;;;;;;;12.10;4.15;;;;;;;-11.61;77.13;99355.53;5025521;28;20042;-78
2021/12/26 11:10:40;;;;;;;9.77;3.35;;;;;;;-11.83;76.91;99319.06;5023644;28;20045;-79
2021/12/26 11:13:20;;;;;;;5.97;2.70;;;;;;;-11.48;77.49;99352.94;5023379;28;20049;-77
2021/12/26 11:15:56;;;;;;;3.85;1.73;;;;;;;-11.49;76.98;99356.22;5021012;28;20096;-78
2021/12/26 11:18:27;;;;;;;8.75;2.45;;;;;;;-11.42;76.87;99368.38;5023367;28;20065;-77
2021/12/26 11:20:59;;;;;;;4.50;2.20;;;;;;;-11.43;76.74;99361.63;5022682;28;20118;-77
2021/12/26 11:23:32;;;;;;;6.85;1.73;;;;;;;-11.80;77.15;99288.97;5028364;28;20050;-78
2021/12/26 11:26:07;;;;;;;5.18;1.80;;;;;;;-11.84;76.87;99297.13;5020586;28;20096;-78
2021/12/26 11:28:40;;;;;;;6.68;2.10;;;;;;;-11.66;76.89;99311.56;5020534;28;20103;-80
2021/12/26 11:31:16;;;;;;;2.85;1.88;;;;;;;-11.45;77.11;99348.06;5032449;28;20050;-78
2021/12/26 11:33:49;;;;;;;2.50;1.83;;;;;;;-11.99;77.09;99250.97;5015896;28;20241;-78
2021/12/26 11:36:20;;;;;;;1.75;1.60;;;;;;;-11.49;77.02;99343.63;5023529;28;20126;-78
2021/12/26 11:38:53;;;;;;;4.72;1.83;;;;;;;-11.50;77.02;99349.44;5019981;28;20121;-78
2021/12/26 11:41:35;;;;;;;4.32;2.00;;;;;;;-11.74;77.53;99328.75;5029045;28;20049;-77
2021/12/26 11:44:24;;;;;;;1.70;1.60;;;;;;;-11.49;77.22;99350.31;5037620;28;20080;-77
2021/12/26 11:47:21;;;;;;;3.10;1.90;;;;;;;-11.59;77.36;99333.81;5023012;28;20337;-78
2021/12/26 11:50:19;;;;;;;29.75;6.63;;;;;;;-11.60;77.35;99327.03;5022027;28;20198;-78
2021/12/26 11:53:09;;;;;;;48.17;10.20;;;;;;;-11.41;77.35;99344.91;5012618;28;20050;-78
2021/12/26 11:55:46;;;;;;;20.30;5.50;;;;;;;-11.39;77.23;99358.47;5030580;28;20211;-77